Time;durP1;ratioP1;P1;durP2;ratioP2;P2;SDS_P1;SDS_P2;PMS_P1;PMS_P2;Temp;Humidity;BMP_temperature;BMP_pressure;BME280_temperature;BME280_humidity;BME280_pressure;Samples;Min_cycle;Max_cycle;Signal;HPM_P1;HPM_P2
2022/06/16 00:00:16;;;;;;;13.17;3.67;;;;;;;;;;5037441;28;20025;-69
2022/06/16 00:02:42;;;;;;;12.75;3.75;;;;;;;;;;5043006;28;20079;-70
2022/06/16 00:05:09;;;;;;;7.57;3.13;;;;;;;;;;5041574;28;20033;-70
2022/06/16 00:07:35;;;;;;;6.82;3.33;;;;;;;;;;5037791;28;20090;-69
2022/06/16 00:10:00;;;;;;;11.60;3.63;;;;;;;;;;5048842;28;20021;-70
2022/06/16 00:12:25;;;;;;;6.50;2.97;;;;;;;;;;5046459;28;20271;-67
2022/06/16 00:14:50;;;;;;;7.97;3.53;;;;;;;;;;5038458;28;20750;-68
2022/06/16 00:17:15;;;;;;;5.93;3.00;;;;;;;;;;5045025;28;20100;-67
2022/06/16 00:19:40;;;;;;;7.10;2.43;;;;;;;;;;5040019;28;20072;-67
2022/06/16 00:22:06;;;;;;;10.23;3.07;;;;;;;;;;5042347;28;20029;-67
2022/06/16 00:24:31;;;;;;;10.77;3.10;;;;;;;;;;5043752;28;20316;-68
2022/06/16 00:26:56;;;;;;;9.85;2.75;;;;;;;;;;5045119;28;20333;-67
2022/06/16 00:29:23;;;;;;;9.13;2.92;;;;;;;;;;5039795;28;20025;-69
2022/06/16 00:31:48;;;;;;;11.27;3.72;;;;;;;;;;5039748;28;20029;-69
2022/06/16 00:34:13;;;;;;;10.37;2.77;;;;;;;;;;5046641;28;20031;-69
2022/06/16 00:36:39;;;;;;;16.38;3.15;;;;;;;;;;5045814;28;20271;-67
2022/06/16 00:39:04;;;;;;;8.17;2.23;;;;;;;;;;5039849;28;20013;-69
2022/06/16 00:41:29;;;;;;;8.17;2.70;;;;;;;;;;5041281;28;20272;-70
2022/06/16 00:43:58;;;;;;;7.65;2.72;;;;;;;;;;5041962;28;20294;-67
2022/06/16 00:46:24;;;;;;;9.82;2.70;;;;;;;;;;5049822;28;20804;-67
2022/06/16 00:48:55;;;;;;;10.95;2.55;;;;;;;;;;5036463;28;20112;-67
2022/06/16 00:51:31;;;;;;;7.20;2.88;;;;;;;;;;5043817;28;20424;-67
2022/06/16 00:53:58;;;;;;;10.77;3.58;;;;;;;;;;5039308;28;20110;-67
2022/06/16 00:56:23;;;;;;;14.40;3.30;;;;;;;;;;5042900;28;20020;-67
2022/06/16 00:58:52;;;;;;;13.55;2.40;;;;;;;;;;5043206;28;20140;-69
2022/06/16 01:01:19;;;;;;;9.75;2.55;;;;;;;;;;5044590;28;20053;-69
2022/06/16 01:06:29;;;;;;;9.18;2.80;;;;;;;;;;5050200;28;20036;-69
2022/06/16 01:08:56;;;;;;;7.80;2.45;;;;;;;;;;5040283;28;20112;-70
2022/06/16 01:14:56;;;;;;;9.75;3.15;;;;;;;;;;4991038;28;20078;-69
2022/06/16 01:17:40;;;;;;;9.23;2.95;;;;;;;;;;5039020;28;20509;-70
2022/06/16 01:20:08;;;;;;;7.00;2.40;;;;;;;;;;5041866;28;20025;-69
2022/06/16 01:22:54;;;;;;;5.15;2.78;;;;;;;;;;5034301;28;20465;-67
2022/06/16 01:25:19;;;;;;;10.18;3.03;;;;;;;;;;5044351;28;20057;-67
2022/06/16 01:27:54;;;;;;;10.25;3.28;;;;;;;;;;5041732;28;20045;-68
2022/06/16 01:30:31;;;;;;;11.82;3.17;;;;;;;;;;5043808;28;20083;-71
2022/06/16 01:33:03;;;;;;;5.43;2.95;;;;;;;;;;5045674;28;20612;-67
2022/06/16 01:35:42;;;;;;;8.23;2.85;;;;;;;;;;5036822;28;20044;-67
2022/06/16 01:38:12;;;;;;;10.32;3.20;;;;;;;;;;5032087;28;20109;-67
2022/06/16 01:40:45;;;;;;;8.57;3.03;;;;;;;;;;5042113;28;20527;-68
2022/06/16 01:43:13;;;;;;;15.18;3.30;;;;;;;;;;5044788;28;20428;-67
2022/06/16 01:45:44;;;;;;;12.55;3.55;;;;;;;;;;5039239;28;20026;-68
2022/06/16 01:48:11;;;;;;;6.20;2.75;;;;;;;;;;5047424;28;20366;-68
2022/06/16 01:50:41;;;;;;;17.08;3.00;;;;;;;;;;5047734;28;20029;-67
2022/06/16 01:53:08;;;;;;;8.38;3.03;;;;;;;;;;5048758;28;20378;-67
2022/06/16 01:55:37;;;;;;;6.63;3.10;;;;;;;;;;5047694;28;20045;-67
2022/06/16 01:58:02;;;;;;;14.20;3.55;;;;;;;;;;5043006;28;20469;-68
2022/06/16 02:00:28;;;;;;;8.13;2.63;;;;;;;;;;5051589;28;20079;-67
2022/06/16 02:02:57;;;;;;;6.97;3.03;;;;;;;;;;5048970;28;20268;-67
2022/06/16 02:05:31;;;;;;;12.45;3.53;;;;;;;;;;5044540;28;20127;-67
2022/06/16 02:08:05;;;;;;;17.17;4.50;;;;;;;;;;5051403;28;20473;-67
2022/06/16 02:10:33;;;;;;;10.40;2.70;;;;;;;;;;5051625;28;20497;-67
2022/06/16 02:12:59;;;;;;;8.32;3.00;;;;;;;;;;5046396;28;20028;-67
2022/06/16 02:15:39;;;;;;;8.70;2.95;;;;;;;;;;5045722;28;20025;-67
2022/06/16 02:18:06;;;;;;;6.82;2.72;;;;;;;;;;5047858;28;20067;-68
2022/06/16 02:20:43;;;;;;;8.10;2.97;;;;;;;;;;5051177;28;20013;-67
2022/06/16 02:23:08;;;;;;;8.32;2.88;;;;;;;;;;5049710;28;20361;-68
2022/06/16 02:25:34;;;;;;;11.65;3.05;;;;;;;;;;5045965;28;20021;-67
2022/06/16 02:27:59;;;;;;;9.65;3.13;;;;;;;;;;5034531;28;20593;-68
2022/06/16 02:30:26;;;;;;;7.80;3.10;;;;;;;;;;5043512;28;20127;-67
2022/06/16 02:32:59;;;;;;;14.40;2.85;;;;;;;;;;5047065;28;20377;-67
2022/06/16 02:35:53;;;;;;;8.95;3.13;;;;;;;;;;5046120;28;20032;-67
2022/06/16 02:38:37;;;;;;;7.13;3.20;;;;;;;;;;4970841;28;20039;-68
2022/06/16 02:41:08;;;;;;;9.60;3.13;;;;;;;;;;5045233;28;20096;-67
2022/06/16 02:43:44;;;;;;;11.05;3.70;;;;;;;;;;5034887;28;20014;-67
2022/06/16 02:46:30;;;;;;;8.20;3.40;;;;;;;;;;5038668;28;20020;-67
2022/06/16 02:49:17;;;;;;;8.13;3.10;;;;;;;;;;5044262;28;20529;-67
2022/06/16 02:51:42;;;;;;;7.75;2.58;;;;;;;;;;5037961;28;20017;-67
2022/06/16 02:54:20;;;;;;;8.50;2.85;;;;;;;;;;5046866;28;20431;-67
2022/06/16 02:57:08;;;;;;;17.88;3.40;;;;;;;;;;5049259;28;20029;-67
2022/06/16 02:59:48;;;;;;;12.82;4.03;;;;;;;;;;5047493;28;20017;-67
2022/06/16 03:02:15;;;;;;;11.23;3.03;;;;;;;;;;5047212;28;20021;-67
2022/06/16 03:04:42;;;;;;;6.97;3.22;;;;;;;;;;5041467;28;20037;-68
2022/06/16 03:07:09;;;;;;;6.47;3.03;;;;;;;;;;5034738;28;20096;-67
2022/06/16 03:09:36;;;;;;;13.00;3.42;;;;;;;;;;5039320;28;20060;-68
2022/06/16 03:12:01;;;;;;;9.90;3.33;;;;;;;;;;5046063;28;20017;-67
2022/06/16 03:14:27;;;;;;;9.43;3.63;;;;;;;;;;5041783;28;20083;-68
2022/06/16 03:16:52;;;;;;;13.13;4.03;;;;;;;;;;5045903;28;20051;-67
2022/06/16 03:19:18;;;;;;;12.43;3.40;;;;;;;;;;5042683;28;20016;-67
2022/06/16 03:21:44;;;;;;;11.52;3.33;;;;;;;;;;5047833;28;20107;-67
2022/06/16 03:24:09;;;;;;;6.38;3.38;;;;;;;;;;5043785;28;20123;-68
2022/06/16 03:26:34;;;;;;;10.68;3.05;;;;;;;;;;5044959;28;20024;-67
2022/06/16 03:28:59;;;;;;;7.53;3.15;;;;;;;;;;5041923;28;20075;-67
2022/06/16 03:31:24;;;;;;;14.73;3.78;;;;;;;;;;5041331;28;20028;-67
2022/06/16 03:33:50;;;;;;;7.43;2.90;;;;;;;;;;5042627;28;20017;-67
2022/06/16 03:36:15;;;;;;;9.20;3.57;;;;;;;;;;5050041;28;20908;-67
2022/06/16 03:38:43;;;;;;;13.95;4.10;;;;;;;;;;5041395;28;20268;-67
2022/06/16 03:41:09;;;;;;;7.10;3.22;;;;;;;;;;5040109;28;20032;-68
2022/06/16 03:43:34;;;;;;;7.18;3.08;;;;;;;;;;5046721;28;20013;-67
2022/06/16 03:45:59;;;;;;;10.53;3.07;;;;;;;;;;5047610;28;20062;-67
2022/06/16 03:48:24;;;;;;;9.57;4.47;;;;;;;;;;5043151;28;20263;-67
2022/06/16 03:50:49;;;;;;;10.88;3.60;;;;;;;;;;5045781;28;20264;-68
2022/06/16 03:53:14;;;;;;;11.23;3.63;;;;;;;;;;5042629;28;20039;-68
2022/06/16 03:55:40;;;;;;;8.03;3.03;;;;;;;;;;5045114;28;20315;-67
2022/06/16 03:58:05;;;;;;;8.17;3.27;;;;;;;;;;5042315;28;20355;-67
2022/06/16 04:00:30;;;;;;;8.70;3.38;;;;;;;;;;5048917;28;20271;-68
2022/06/16 04:05:40;;;;;;;11.23;3.20;;;;;;;;;;5037181;28;20125;-67
2022/06/16 04:08:06;;;;;;;10.48;3.25;;;;;;;;;;5039537;28;20473;-67
2022/06/16 04:10:31;;;;;;;9.95;3.20;;;;;;;;;;5038423;28;20468;-67
2022/06/16 04:12:56;;;;;;;9.25;3.20;;;;;;;;;;5047512;28;20435;-67
2022/06/16 04:15:21;;;;;;;12.00;3.70;;;;;;;;;;5044406;28;20017;-67
2022/06/16 04:17:46;;;;;;;11.13;3.63;;;;;;;;;;5043716;28;20310;-67
2022/06/16 04:20:12;;;;;;;10.80;3.60;;;;;;;;;;5039504;28;20302;-67
2022/06/16 04:22:37;;;;;;;6.95;3.22;;;;;;;;;;5030680;28;20621;-67
2022/06/16 04:25:02;;;;;;;4.27;2.63;;;;;;;;;;5036259;28;20486;-68
2022/06/16 04:27:27;;;;;;;9.10;4.03;;;;;;;;;;5031938;28;20299;-67
2022/06/16 04:29:52;;;;;;;12.87;5.33;;;;;;;;;;5038627;28;20029;-67
2022/06/16 04:32:18;;;;;;;7.20;3.83;;;;;;;;;;5038294;28;20775;-67
2022/06/16 04:34:44;;;;;;;8.68;3.45;;;;;;;;;;5037053;28;20386;-68
2022/06/16 04:37:09;;;;;;;7.90;2.97;;;;;;;;;;5040576;28;20013;-68
2022/06/16 04:39:34;;;;;;;9.20;3.20;;;;;;;;;;5036172;28;20393;-68
2022/06/16 04:41:59;;;;;;;11.23;3.90;;;;;;;;;;5038559;28;20029;-68
2022/06/16 04:44:25;;;;;;;9.45;3.97;;;;;;;;;;5034274;28;20279;-68
2022/06/16 04:46:50;;;;;;;12.75;4.05;;;;;;;;;;5042617;28;20021;-68
2022/06/16 04:49:15;;;;;;;8.77;3.63;;;;;;;;;;5036716;28;20546;-68
2022/06/16 04:51:41;;;;;;;8.93;3.55;;;;;;;;;;5036219;28;20276;-67
2022/06/16 04:54:06;;;;;;;5.22;3.65;;;;;;;;;;5036695;28;20025;-68
2022/06/16 04:56:31;;;;;;;5.90;3.10;;;;;;;;;;5040974;28;20358;-69
2022/06/16 04:58:57;;;;;;;11.40;3.20;;;;;;;;;;5039949;28;20767;-68
2022/06/16 05:01:22;;;;;;;9.20;3.43;;;;;;;;;;5041746;28;20271;-68
2022/06/16 05:03:47;;;;;;;8.40;3.13;;;;;;;;;;5036671;28;20675;-69
2022/06/16 05:06:12;;;;;;;7.25;3.47;;;;;;;;;;5048911;28;20279;-68
2022/06/16 05:08:38;;;;;;;13.40;2.90;;;;;;;;;;5038554;28;20035;-68
2022/06/16 05:11:03;;;;;;;7.65;3.30;;;;;;;;;;5039356;28;20672;-68
2022/06/16 05:13:28;;;;;;;11.32;3.38;;;;;;;;;;5036803;28;20025;-68
2022/06/16 05:15:54;;;;;;;16.63;3.97;;;;;;;;;;5050962;28;20043;-68
2022/06/16 05:18:19;;;;;;;6.45;3.53;;;;;;;;;;5045355;28;20337;-68
2022/06/16 05:20:44;;;;;;;5.65;3.40;;;;;;;;;;5041821;28;20031;-68
2022/06/16 05:23:10;;;;;;;7.60;3.28;;;;;;;;;;5039839;28;20105;-70
2022/06/16 05:25:36;;;;;;;15.98;3.05;;;;;;;;;;5044147;28;20077;-70
2022/06/16 05:28:01;;;;;;;9.38;3.55;;;;;;;;;;5045979;28;20544;-69
2022/06/16 05:30:27;;;;;;;15.50;3.60;;;;;;;;;;5040474;28;20025;-69
2022/06/16 05:32:53;;;;;;;7.90;2.92;;;;;;;;;;5043566;28;20279;-69
2022/06/16 05:35:18;;;;;;;8.30;3.40;;;;;;;;;;5049435;28;20436;-69
2022/06/16 05:37:43;;;;;;;4.23;2.83;;;;;;;;;;5052460;28;20017;-69
2022/06/16 05:40:09;;;;;;;8.23;3.75;;;;;;;;;;5046197;28;20071;-69
2022/06/16 05:42:34;;;;;;;8.63;2.85;;;;;;;;;;5043023;28;20044;-68
2022/06/16 05:45:00;;;;;;;11.00;4.40;;;;;;;;;;5041460;28;20409;-70
2022/06/16 05:47:25;;;;;;;7.85;3.28;;;;;;;;;;5046459;28;20383;-69
2022/06/16 05:49:50;;;;;;;14.32;3.25;;;;;;;;;;5048471;28;20026;-69
2022/06/16 05:52:18;;;;;;;12.83;3.30;;;;;;;;;;5040635;28;20028;-68
2022/06/16 05:54:44;;;;;;;9.45;2.92;;;;;;;;;;5045311;28;20283;-68
2022/06/16 05:57:09;;;;;;;11.35;3.40;;;;;;;;;;5037964;28;20507;-69
2022/06/16 05:59:34;;;;;;;12.32;3.45;;;;;;;;;;5043715;28;20131;-69
2022/06/16 06:02:00;;;;;;;8.75;3.13;;;;;;;;;;5043957;28;20025;-69
2022/06/16 06:04:25;;;;;;;6.50;3.10;;;;;;;;;;5046661;28;20646;-69
2022/06/16 06:06:50;;;;;;;11.57;3.38;;;;;;;;;;5051636;28;20256;-68
2022/06/16 06:17:28;;;;;;;12.77;3.28;;;;;;;;;;5034642;28;20147;-69
2022/06/16 06:19:53;;;;;;;5.90;2.83;;;;;;;;;;5048399;28;20095;-69
2022/06/16 06:22:19;;;;;;;6.82;3.33;;;;;;;;;;5041306;28;20782;-69
2022/06/16 06:24:46;;;;;;;22.90;3.50;;;;;;;;;;5042572;28;20446;-69
2022/06/16 06:27:14;;;;;;;12.48;3.10;;;;;;;;;;5047398;28;20017;-70
2022/06/16 06:29:40;;;;;;;7.93;3.17;;;;;;;;;;5039569;28;20082;-68
2022/06/16 06:32:05;;;;;;;10.90;3.45;;;;;;;;;;5039423;28;20025;-68
2022/06/16 06:34:31;;;;;;;8.52;3.05;;;;;;;;;;5039348;28;20147;-68
2022/06/16 06:36:56;;;;;;;10.30;2.83;;;;;;;;;;5041923;28;20013;-69
2022/06/16 06:39:21;;;;;;;7.70;2.83;;;;;;;;;;5043773;28;20021;-69
2022/06/16 06:41:47;;;;;;;6.95;2.97;;;;;;;;;;5051887;28;20009;-68
2022/06/16 06:44:12;;;;;;;9.43;3.08;;;;;;;;;;5024677;28;20050;-69
2022/06/16 06:46:38;;;;;;;11.90;3.50;;;;;;;;;;5079313;22;20412;-67
2022/06/16 06:49:03;;;;;;;7.95;2.72;;;;;;;;;;5084041;28;20061;-67
2022/06/16 06:51:28;;;;;;;9.65;2.60;;;;;;;;;;5088569;28;20393;-67
2022/06/16 06:53:54;;;;;;;6.55;2.80;;;;;;;;;;5083666;28;20518;-68
2022/06/16 06:56:19;;;;;;;9.07;2.37;;;;;;;;;;5079305;28;20590;-67
2022/06/16 06:58:44;;;;;;;14.48;2.85;;;;;;;;;;5065623;28;20024;-66
2022/06/16 07:01:09;;;;;;;5.75;2.88;;;;;;;;;;5064890;28;20031;-68
2022/06/16 07:03:35;;;;;;;4.97;2.40;;;;;;;;;;5066937;28;20020;-67
2022/06/16 07:06:01;;;;;;;7.72;2.50;;;;;;;;;;5056427;28;20735;-67
2022/06/16 07:08:27;;;;;;;12.50;3.03;;;;;;;;;;5074691;28;20015;-66
2022/06/16 07:10:52;;;;;;;10.05;2.75;;;;;;;;;;5077141;28;20017;-66
2022/06/16 07:13:18;;;;;;;5.30;2.30;;;;;;;;;;5064360;28;20449;-67
2022/06/16 07:15:43;;;;;;;11.95;2.63;;;;;;;;;;5070985;28;20672;-67
2022/06/16 07:18:09;;;;;;;10.20;2.83;;;;;;;;;;5072241;28;20140;-67
2022/06/16 07:20:34;;;;;;;6.83;2.10;;;;;;;;;;5076284;28;20020;-67
2022/06/16 07:22:59;;;;;;;11.10;2.60;;;;;;;;;;5059178;28;20035;-67
2022/06/16 07:25:24;;;;;;;4.97;2.37;;;;;;;;;;5075994;28;20782;-67
2022/06/16 07:27:50;;;;;;;12.90;2.45;;;;;;;;;;5076370;28;20311;-67
2022/06/16 07:30:17;;;;;;;6.05;2.30;;;;;;;;;;5072046;28;20237;-68
2022/06/16 07:32:43;;;;;;;6.35;2.45;;;;;;;;;;5080276;28;20539;-68
2022/06/16 07:35:09;;;;;;;6.32;2.10;;;;;;;;;;5066156;28;20505;-68
2022/06/16 07:37:34;;;;;;;10.82;2.72;;;;;;;;;;5074796;28;20020;-68
2022/06/16 07:39:59;;;;;;;7.50;2.65;;;;;;;;;;5069836;28;20016;-68
2022/06/16 07:42:25;;;;;;;11.68;2.50;;;;;;;;;;5069537;28;20065;-68
2022/06/16 07:44:51;;;;;;;7.13;2.47;;;;;;;;;;5068163;28;20056;-68
2022/06/16 07:47:16;;;;;;;8.15;2.40;;;;;;;;;;5080340;28;20017;-68
2022/06/16 07:49:43;;;;;;;15.07;2.90;;;;;;;;;;5071454;28;20554;-68
2022/06/16 07:52:08;;;;;;;10.55;2.70;;;;;;;;;;5056033;28;20279;-68
2022/06/16 07:54:33;;;;;;;5.50;2.30;;;;;;;;;;5084992;28;20027;-68
2022/06/16 07:56:58;;;;;;;8.03;2.30;;;;;;;;;;5070393;28;20016;-68
2022/06/16 07:59:23;;;;;;;9.23;2.40;;;;;;;;;;5069152;28;20048;-68
2022/06/16 08:01:49;;;;;;;6.60;2.30;;;;;;;;;;5062826;28;20031;-68
2022/06/16 08:04:15;;;;;;;8.10;2.30;;;;;;;;;;5068547;28;20021;-67
2022/06/16 08:06:40;;;;;;;5.47;2.10;;;;;;;;;;5080537;28;20019;-67
2022/06/16 08:09:06;;;;;;;15.73;2.33;;;;;;;;;;5070314;28;20362;-67
2022/06/16 08:14:15;;;;;;;8.48;2.50;;;;;;;;;;5068806;28;20039;-68
2022/06/16 08:16:41;;;;;;;5.20;2.35;;;;;;;;;;5069447;28;20020;-68
2022/06/16 08:19:07;;;;;;;6.97;2.70;;;;;;;;;;5068553;28;20012;-67
2022/06/16 08:21:32;;;;;;;7.93;2.10;;;;;;;;;;5066174;28;20016;-66
2022/06/16 08:23:57;;;;;;;9.07;2.43;;;;;;;;;;5070097;28;20024;-67
2022/06/16 08:26:23;;;;;;;5.65;2.30;;;;;;;;;;5070080;28;20056;-66
2022/06/16 08:28:49;;;;;;;4.38;2.40;;;;;;;;;;5062880;28;20036;-67
2022/06/16 08:31:17;;;;;;;6.93;2.40;;;;;;;;;;5078920;28;20019;-67
2022/06/16 08:33:43;;;;;;;6.55;2.75;;;;;;;;;;5070314;28;20020;-67
2022/06/16 08:36:08;;;;;;;8.75;2.78;;;;;;;;;;5058193;28;20367;-67
2022/06/16 08:38:33;;;;;;;7.93;2.63;;;;;;;;;;5055377;28;20341;-67
2022/06/16 08:41:12;;;;;;;9.50;3.70;;;;;;;;;;5066164;28;20024;-68
2022/06/16 08:43:44;;;;;;;13.73;3.40;;;;;;;;;;5070169;28;20017;-66
2022/06/16 08:46:12;;;;;;;9.25;2.72;;;;;;;;;;5067744;28;20259;-68
2022/06/16 08:48:40;;;;;;;7.50;3.40;;;;;;;;;;5069937;28;20046;-68
2022/06/16 08:51:33;;;;;;;13.02;2.90;;;;;;;;;;5072137;28;20021;-67
2022/06/16 08:54:08;;;;;;;8.13;2.80;;;;;;;;;;5034606;28;20127;-67
2022/06/16 08:56:39;;;;;;;7.55;2.65;;;;;;;;;;5073337;28;20472;-68
2022/06/16 08:59:05;;;;;;;6.80;2.75;;;;;;;;;;5073047;28;20636;-67
2022/06/16 09:01:41;;;;;;;7.70;2.90;;;;;;;;;;5077433;28;20023;-67
2022/06/16 09:04:09;;;;;;;6.03;2.50;;;;;;;;;;5078754;28;20048;-67
2022/06/16 09:06:37;;;;;;;6.90;2.65;;;;;;;;;;5072269;28;20028;-67
2022/06/16 09:10:14;;;;;;;12.00;2.38;;;;;;;;;;5071760;28;20103;-68
2022/06/16 09:12:24;;;;;;;8.65;2.10;;;;;;;;;;5062123;28;20020;-68
2022/06/16 09:15:11;;;;;;;11.68;2.88;;;;;;;;;;5076622;28;20485;-68
2022/06/16 09:17:41;;;;;;;4.43;1.80;;;;;;;;;;5070782;28;20017;-69
2022/06/16 09:20:22;;;;;;;5.90;2.00;;;;;;;;;;5073225;28;20020;-68
2022/06/16 09:23:06;;;;;;;6.50;1.63;;;;;;;;;;5071475;28;20017;-68
2022/06/16 09:26:01;;;;;;;6.72;1.75;;;;;;;;;;5070176;28;20020;-68
2022/06/16 09:28:35;;;;;;;5.28;1.80;;;;;;;;;;5033666;28;20392;-68
2022/06/16 09:31:01;;;;;;;5.00;1.98;;;;;;;;;;5053095;28;20482;-68
2022/06/16 09:33:30;;;;;;;5.97;1.70;;;;;;;;;;5035971;28;20108;-68
2022/06/16 09:36:01;;;;;;;5.82;1.98;;;;;;;;;;5070675;28;20368;-68
2022/06/16 09:38:29;;;;;;;3.92;1.52;;;;;;;;;;5068021;28;20100;-68
2022/06/16 09:41:01;;;;;;;3.65;1.60;;;;;;;;;;5069454;28;20088;-68
2022/06/16 09:43:29;;;;;;;7.13;1.42;;;;;;;;;;5068612;28;20008;-68
2022/06/16 09:45:57;;;;;;;3.55;1.55;;;;;;;;;;5067839;28;20052;-68
2022/06/16 09:48:41;;;;;;;5.85;1.60;;;;;;;;;;5070297;28;20024;-68
2022/06/16 09:51:09;;;;;;;1.98;1.17;;;;;;;;;;5065035;28;20497;-68
2022/06/16 09:53:37;;;;;;;3.10;1.65;;;;;;;;;;5066318;28;20020;-68
2022/06/16 09:56:05;;;;;;;6.25;1.52;;;;;;;;;;5068689;28;20016;-68
2022/06/16 09:58:48;;;;;;;9.10;1.92;;;;;;;;;;5068562;28;20013;-68
2022/06/16 10:01:16;;;;;;;3.08;1.42;;;;;;;;;;5065537;28;20025;-68
2022/06/16 10:03:44;;;;;;;4.63;1.85;;;;;;;;;;5069554;28;20416;-68
2022/06/16 10:06:12;;;;;;;4.28;1.75;;;;;;;;;;5066380;28;20532;-68
2022/06/16 10:08:41;;;;;;;3.85;1.15;;;;;;;;;;5061788;28;20016;-68
2022/06/16 10:11:26;;;;;;;3.70;1.60;;;;;;;;;;5070411;28;20103;-67
2022/06/16 10:14:12;;;;;;;5.22;1.30;;;;;;;;;;5084606;28;20095;-68
2022/06/16 10:16:46;;;;;;;6.25;1.67;;;;;;;;;;5060996;28;20017;-68
2022/06/16 10:19:11;;;;;;;6.15;1.67;;;;;;;;;;5067718;28;20021;-67
2022/06/16 10:21:36;;;;;;;3.33;1.30;;;;;;;;;;5066540;28;20114;-67
2022/06/16 10:24:02;;;;;;;4.03;1.23;;;;;;;;;;5069234;28;20020;-68
2022/06/16 10:26:28;;;;;;;6.95;1.38;;;;;;;;;;5072135;28;20376;-68
2022/06/16 10:29:04;;;;;;;5.13;1.30;;;;;;;;;;5067953;28;20070;-68
2022/06/16 10:31:35;;;;;;;2.33;1.40;;;;;;;;;;5067885;28;20507;-68
2022/06/16 10:34:01;;;;;;;9.05;1.60;;;;;;;;;;5065502;28;20051;-68
2022/06/16 10:36:27;;;;;;;3.20;1.10;;;;;;;;;;5064963;28;20063;-68
2022/06/16 10:39:08;;;;;;;5.45;1.55;;;;;;;;;;5074376;28;20012;-68
2022/06/16 10:41:35;;;;;;;6.18;1.20;;;;;;;;;;5075371;28;20143;-68
2022/06/16 10:44:02;;;;;;;1.92;1.10;;;;;;;;;;5068050;28;20684;-68
2022/06/16 10:46:35;;;;;;;3.65;0.95;;;;;;;;;;5071616;28;20054;-68
2022/06/16 10:49:04;;;;;;;3.50;1.20;;;;;;;;;;5043332;28;20082;-68
2022/06/16 10:51:32;;;;;;;4.97;1.30;;;;;;;;;;5059439;28;20020;-67
2022/06/16 10:54:11;;;;;;;3.55;0.77;;;;;;;;;;5077263;28;20028;-68
2022/06/16 10:56:38;;;;;;;6.47;1.08;;;;;;;;;;5076442;28;20035;-67
2022/06/16 10:59:04;;;;;;;4.10;1.30;;;;;;;;;;5063453;28;20023;-68
2022/06/16 11:01:35;;;;;;;6.22;1.02;;;;;;;;;;5065319;28;20025;-68
2022/06/16 11:04:06;;;;;;;3.13;1.25;;;;;;;;;;5068778;28;20028;-69
2022/06/16 11:06:31;;;;;;;7.95;1.25;;;;;;;;;;5069682;28;20016;-68
2022/06/16 11:09:01;;;;;;;3.92;1.38;;;;;;;;;;5071361;28;20082;-68
2022/06/16 11:11:33;;;;;;;2.55;0.70;;;;;;;;;;5067627;28;20542;-68
2022/06/16 11:14:00;;;;;;;14.98;1.60;;;;;;;;;;5067543;28;20506;-68
2022/06/16 11:16:28;;;;;;;3.60;0.85;;;;;;;;;;5068202;28;20484;-68
2022/06/16 11:18:55;;;;;;;4.00;1.13;;;;;;;;;;5071350;28;20032;-68
2022/06/16 11:21:22;;;;;;;5.90;1.00;;;;;;;;;;5049479;28;20385;-68
2022/06/16 11:23:52;;;;;;;7.88;1.25;;;;;;;;;;5070458;28;20013;-68
2022/06/16 11:26:17;;;;;;;;;;;;;;;;;;5065806;28;20021;-68
2022/06/16 11:28:43;;;;;;;3.50;0.77;;;;;;;;;;5070536;28;20049;-68
2022/06/16 11:31:11;;;;;;;3.67;1.13;;;;;;;;;;5069691;28;20323;-68
2022/06/16 11:36:40;;;;;;;8.00;1.10;;;;;;;;;;5057261;28;20059;-68
2022/06/16 11:39:08;;;;;;;3.97;1.10;;;;;;;;;;5081420;28;20399;-68
2022/06/16 11:41:33;;;;;;;2.70;1.13;;;;;;;;;;5068167;28;20016;-68
2022/06/16 11:43:58;;;;;;;4.30;1.42;;;;;;;;;;5070533;28;20017;-68
2022/06/16 11:46:28;;;;;;;2.22;0.98;;;;;;;;;;5066205;28;20035;-69
2022/06/16 11:48:59;;;;;;;4.22;1.23;;;;;;;;;;5071026;28;20035;-69
2022/06/16 11:51:27;;;;;;;2.55;1.10;;;;;;;;;;5065027;28;20020;-69
2022/06/16 11:54:05;;;;;;;4.50;1.25;;;;;;;;;;5070674;28;20017;-69
2022/06/16 11:56:44;;;;;;;3.35;0.90;;;;;;;;;;5063707;28;20024;-69
2022/06/16 11:59:17;;;;;;;1.42;0.65;;;;;;;;;;5049842;28;20525;-69
2022/06/16 12:01:45;;;;;;;2.17;1.00;;;;;;;;;;5068888;28;20036;-68
2022/06/16 12:04:11;;;;;;;3.05;0.98;;;;;;;;;;5066907;28;20074;-69
2022/06/16 12:06:36;;;;;;;3.65;1.20;;;;;;;;;;5065822;28;20024;-69
2022/06/16 12:09:16;;;;;;;5.87;1.03;;;;;;;;;;5070424;28;20511;-69
2022/06/16 12:12:00;;;;;;;2.70;1.23;;;;;;;;;;5066879;28;20029;-69
2022/06/16 12:14:25;;;;;;;4.60;1.15;;;;;;;;;;5069813;28;20040;-69
2022/06/16 12:16:57;;;;;;;5.87;1.40;;;;;;;;;;5054793;28;20568;-69
2022/06/16 12:19:40;;;;;;;27.23;4.63;;;;;;;;;;5055098;28;20476;-69
2022/06/16 12:22:15;;;;;;;3.67;1.52;;;;;;;;;;5067605;28;20032;-69
2022/06/16 12:24:46;;;;;;;2.53;1.10;;;;;;;;;;5069975;28;20090;-69
2022/06/16 12:27:15;;;;;;;2.53;1.00;;;;;;;;;;5065800;28;20120;-69
2022/06/16 12:29:40;;;;;;;3.53;1.33;;;;;;;;;;5068447;28;20020;-69
2022/06/16 12:32:08;;;;;;;4.55;1.42;;;;;;;;;;5065262;28;20078;-69
2022/06/16 12:34:52;;;;;;;5.05;1.23;;;;;;;;;;5064713;28;20130;-69
2022/06/16 12:37:19;;;;;;;5.55;1.75;;;;;;;;;;5066722;28;20020;-69
2022/06/16 12:39:47;;;;;;;1.95;1.13;;;;;;;;;;5069488;28;20043;-69
2022/06/16 12:42:16;;;;;;;7.38;1.33;;;;;;;;;;5066924;28;20331;-69
2022/06/16 12:44:44;;;;;;;2.92;1.00;;;;;;;;;;5069825;28;20381;-69
2022/06/16 12:47:10;;;;;;;5.03;1.25;;;;;;;;;;5068328;28;20487;-69
2022/06/16 12:49:51;;;;;;;4.80;1.48;;;;;;;;;;5079214;28;20028;-69
2022/06/16 12:52:29;;;;;;;2.83;1.00;;;;;;;;;;5068650;28;20028;-69
2022/06/16 12:54:55;;;;;;;6.97;1.08;;;;;;;;;;5058238;28;20028;-70
2022/06/16 12:57:23;;;;;;;4.93;1.10;;;;;;;;;;5053083;28;20012;-69
2022/06/16 12:59:54;;;;;;;3.53;1.13;;;;;;;;;;5069830;28;20017;-69
2022/06/16 13:02:25;;;;;;;2.33;1.13;;;;;;;;;;5077915;28;20477;-69
2022/06/16 13:04:51;;;;;;;5.10;1.10;;;;;;;;;;5066302;28;20047;-69
2022/06/16 13:07:24;;;;;;;3.33;1.33;;;;;;;;;;5060786;28;20489;-69
2022/06/16 13:09:49;;;;;;;3.92;1.20;;;;;;;;;;5059248;28;20027;-69
2022/06/16 13:12:15;;;;;;;6.83;1.20;;;;;;;;;;5058196;28;20028;-70
2022/06/16 13:14:46;;;;;;;2.13;1.27;;;;;;;;;;5067020;28;20377;-69
2022/06/16 13:17:12;;;;;;;8.65;1.20;;;;;;;;;;5065211;28;20056;-69
2022/06/16 13:19:45;;;;;;;5.47;1.10;;;;;;;;;;5065864;28;20100;-69
2022/06/16 13:22:22;;;;;;;2.50;1.30;;;;;;;;;;5063964;28;20056;-70
2022/06/16 13:24:51;;;;;;;7.55;1.23;;;;;;;;;;5046808;28;20369;-70
2022/06/16 13:27:35;;;;;;;2.90;1.30;;;;;;;;;;5058186;28;20047;-69
2022/06/16 13:30:07;;;;;;;4.32;1.23;;;;;;;;;;5065331;28;20821;-69
2022/06/16 13:32:38;;;;;;;3.78;1.30;;;;;;;;;;5068764;28;20570;-69
2022/06/16 13:35:12;;;;;;;2.22;1.45;;;;;;;;;;5071514;28;20021;-69
2022/06/16 13:37:46;;;;;;;12.88;1.30;;;;;;;;;;5077839;28;20012;-69
2022/06/16 13:40:11;;;;;;;3.60;1.30;;;;;;;;;;5073108;28;20031;-69
2022/06/16 13:42:43;;;;;;;12.00;1.40;;;;;;;;;;5070451;28;20365;-69
2022/06/16 13:45:11;;;;;;;2.67;1.42;;;;;;;;;;5072895;28;20282;-70
2022/06/16 13:47:41;;;;;;;5.97;1.42;;;;;;;;;;5063886;28;20481;-70
2022/06/16 13:50:10;;;;;;;3.63;1.40;;;;;;;;;;5062640;28;20043;-70
2022/06/16 13:52:37;;;;;;;3.45;1.33;;;;;;;;;;5063860;28;20098;-69
2022/06/16 13:55:21;;;;;;;3.60;1.02;;;;;;;;;;5039321;28;20031;-69
2022/06/16 13:58:05;;;;;;;6.93;1.48;;;;;;;;;;5075913;28;20020;-69
2022/06/16 14:00:32;;;;;;;1.75;1.15;;;;;;;;;;5079394;28;20021;-69
2022/06/16 14:03:00;;;;;;;2.05;1.15;;;;;;;;;;5064215;28;20025;-69
2022/06/16 14:05:27;;;;;;;2.42;1.08;;;;;;;;;;5065892;28;20028;-69
2022/06/16 14:07:58;;;;;;;3.75;1.60;;;;;;;;;;5059010;28;20004;-69
2022/06/16 14:10:33;;;;;;;4.40;1.33;;;;;;;;;;5068588;28;20025;-69
2022/06/16 14:13:02;;;;;;;2.38;1.00;;;;;;;;;;5068947;28;20047;-69
2022/06/16 14:15:42;;;;;;;2.42;1.00;;;;;;;;;;5083405;28;20016;-70
2022/06/16 14:18:42;;;;;;;2.22;1.27;;;;;;;;;;5065185;28;20020;-70
2022/06/16 14:21:10;;;;;;;3.67;1.95;;;;;;;;;;5014073;28;20486;-69
2022/06/16 14:23:40;;;;;;;5.32;1.70;;;;;;;;;;5054260;28;20483;-69
2022/06/16 14:26:08;;;;;;;4.65;1.38;;;;;;;;;;5052266;28;20392;-69
2022/06/16 14:28:35;;;;;;;6.20;1.50;;;;;;;;;;5080520;28;20028;-69
2022/06/16 14:31:04;;;;;;;5.10;1.42;;;;;;;;;;5074496;28;20487;-69
2022/06/16 14:33:39;;;;;;;4.63;1.88;;;;;;;;;;5065255;28;20050;-69
2022/06/16 14:36:17;;;;;;;4.20;1.75;;;;;;;;;;5069159;28;20027;-69
2022/06/16 14:38:51;;;;;;;4.00;1.55;;;;;;;;;;5061655;28;20032;-69
2022/06/16 14:41:20;;;;;;;5.53;1.48;;;;;;;;;;5058821;28;20020;-70
2022/06/16 14:43:57;;;;;;;4.47;1.20;;;;;;;;;;5068138;28;20021;-70
2022/06/16 14:46:25;;;;;;;3.55;1.48;;;;;;;;;;5061551;28;20385;-69
2022/06/16 14:48:54;;;;;;;6.50;1.20;;;;;;;;;;5054932;28;20099;-69
2022/06/16 14:51:27;;;;;;;3.83;1.40;;;;;;;;;;5049061;28;20020;-69
2022/06/16 14:54:04;;;;;;;2.47;1.27;;;;;;;;;;5048055;28;20020;-69
2022/06/16 14:56:38;;;;;;;3.63;1.33;;;;;;;;;;5054758;28;20103;-69
2022/06/16 14:59:07;;;;;;;6.72;2.00;;;;;;;;;;5056814;28;20469;-70
2022/06/16 15:01:34;;;;;;;5.47;2.40;;;;;;;;;;5065555;28;20358;-69
2022/06/16 15:04:00;;;;;;;3.25;1.55;;;;;;;;;;5056750;28;20104;-69
2022/06/16 15:06:26;;;;;;;5.95;1.70;;;;;;;;;;5043396;28;20031;-69
2022/06/16 15:08:56;;;;;;;3.25;1.33;;;;;;;;;;5041836;28;20024;-69
2022/06/16 15:11:23;;;;;;;2.95;1.23;;;;;;;;;;5040283;28;20087;-69
2022/06/16 15:13:51;;;;;;;3.10;1.20;;;;;;;;;;5041669;28;20033;-69